createdAt,value
2018-04-19T00:00:39.837Z,58.20
2018-04-19T00:03:07.478Z,58.30
2018-04-19T00:05:35.815Z,58.90
2018-04-19T00:08:03.412Z,58.80
2018-04-19T00:10:31.842Z,58.10
2018-04-19T00:12:59.436Z,58.10
2018-04-19T00:15:27.103Z,58.90
2018-04-19T00:17:54.809Z,58.90
2018-04-19T00:20:22.382Z,59.00
2018-04-19T00:22:50.159Z,60.50
2018-04-19T00:25:17.715Z,60.10
2018-04-19T00:27:45.369Z,60.90
2018-04-19T00:30:13.061Z,61.30
2018-04-19T00:32:41.428Z,61.40
2018-04-19T00:35:09.077Z,61.40
2018-04-19T00:37:36.674Z,62.00
2018-04-19T00:40:04.999Z,62.80
2018-04-19T00:42:32.601Z,62.70
2018-04-19T00:45:00.957Z,61.90
2018-04-19T00:47:28.609Z,61.90
2018-04-19T00:49:56.197Z,61.70
2018-04-19T00:52:36.549Z,62.10
2018-04-19T00:55:04.155Z,62.10
2018-04-19T00:57:31.753Z,63.10
2018-04-19T01:00:00.155Z,62.70
2018-04-19T01:02:28.544Z,62.60
2018-04-19T01:04:56.909Z,62.20
2018-04-19T01:07:25.233Z,61.90
2018-04-19T01:09:52.813Z,61.90
2018-04-19T01:12:20.373Z,63.00
2018-04-19T01:14:48.168Z,62.70
2018-04-19T01:17:16.493Z,63.50
2018-04-19T01:19:44.093Z,63.50
2018-04-19T01:22:11.651Z,64.00
2018-04-19T01:24:39.255Z,64.70
2018-04-19T01:27:06.854Z,64.40
2018-04-19T01:29:34.528Z,65.40
2018-04-19T01:32:02.245Z,65.30
2018-04-19T01:34:29.813Z,65.70
2018-04-19T01:36:57.421Z,66.50
2018-04-19T01:39:25.861Z,65.90
2018-04-19T01:41:53.520Z,65.90
2018-04-19T01:44:21.117Z,63.90
2018-04-19T01:46:49.441Z,64.20
2018-04-19T01:49:17.094Z,63.90
2018-04-19T01:51:44.682Z,64.80
2018-04-19T01:54:12.276Z,64.80
2018-04-19T01:56:40.673Z,65.40
2018-04-19T01:59:08.256Z,65.40
2018-04-19T02:01:35.822Z,66.10
2018-04-19T02:04:03.473Z,66.80
2018-04-19T02:06:31.040Z,67.50
2018-04-19T02:08:58.725Z,67.80
2018-04-19T02:11:26.297Z,68.10
2018-04-19T02:13:53.889Z,68.60
2018-04-19T02:16:21.449Z,68.80
2018-04-19T02:18:49.062Z,69.20
2018-04-19T02:21:16.722Z,70.00
2018-04-19T02:23:45.825Z,69.10
2018-04-19T02:26:13.389Z,69.10
2018-04-19T02:28:40.952Z,67.60
2018-04-19T02:31:09.325Z,67.40
2018-04-19T02:33:36.892Z,67.30
2018-04-19T02:36:05.250Z,68.00
2018-04-19T02:38:33.570Z,68.00
2018-04-19T02:41:01.294Z,68.00
2018-04-19T02:43:28.855Z,68.50
2018-04-19T02:45:57.294Z,67.50
2018-04-19T02:48:24.850Z,67.50
2018-04-19T02:50:52.466Z,68.80
2018-04-19T02:53:20.800Z,68.20
2018-04-19T02:55:48.593Z,68.80
2018-04-19T02:58:16.481Z,68.20
2018-04-19T03:00:44.997Z,68.30
2018-04-19T03:03:12.567Z,68.30
2018-04-19T03:05:40.215Z,69.60
2018-04-19T03:08:07.978Z,70.20
2018-04-19T03:10:35.550Z,69.80
2018-04-19T03:13:03.233Z,70.40
2018-04-19T03:15:30.800Z,70.30
2018-04-19T03:17:59.205Z,70.00
2018-04-19T03:20:26.786Z,70.10
2018-04-19T03:22:54.401Z,69.60
2018-04-19T03:25:22.712Z,70.50
2018-04-19T03:27:50.308Z,70.50
2018-04-19T03:30:17.866Z,69.40
2018-04-19T03:32:45.463Z,69.50
2018-04-19T03:35:13.820Z,70.00
2018-04-19T03:37:41.381Z,70.00
2018-04-19T03:40:09.056Z,70.00
2018-04-19T03:42:37.401Z,70.30
2018-04-19T03:45:04.993Z,70.30
2018-04-19T03:47:33.314Z,70.90
2018-04-19T03:50:01.071Z,70.80
2018-04-19T03:52:28.650Z,70.30
2018-04-19T03:54:56.233Z,71.40
2018-04-19T03:57:23.789Z,71.90
2018-04-19T03:59:51.502Z,70.90
2018-04-19T04:02:19.178Z,70.30
2018-04-19T04:04:46.769Z,70.80
2018-04-19T04:07:14.377Z,71.30
2018-04-19T04:09:42.126Z,71.00
2018-04-19T04:12:09.725Z,71.60
2018-04-19T04:14:37.286Z,71.90
2018-04-19T04:17:16.648Z,72.20
2018-04-19T04:19:56.070Z,71.90
2018-04-19T04:22:35.580Z,72.60
2018-04-19T04:25:03.346Z,73.30
2018-04-19T04:27:30.949Z,73.80
2018-04-19T04:29:58.515Z,73.30
2018-04-19T04:32:26.849Z,72.00
2018-04-19T04:34:54.440Z,71.90
2018-04-19T04:37:22.012Z,72.80
2018-04-19T04:39:50.369Z,73.60
2018-04-19T04:42:18.705Z,74.50
2018-04-19T04:44:46.288Z,74.40
2018-04-19T04:47:13.844Z,74.40
2018-04-19T04:49:41.489Z,74.60
2018-04-19T04:52:09.078Z,73.20
2018-04-19T04:54:36.858Z,73.00
2018-04-19T04:57:04.516Z,73.30
2018-04-19T04:59:32.080Z,73.00
2018-04-19T05:02:00.439Z,73.90
2018-04-19T05:04:28.009Z,73.80
2018-04-19T05:06:55.781Z,74.30
2018-04-19T05:09:24.144Z,74.50
2018-04-19T05:11:51.737Z,74.40
2018-04-19T05:14:19.336Z,74.60
2018-04-19T05:16:47.029Z,74.50
2018-04-19T05:19:14.592Z,75.10
2018-04-19T05:21:42.977Z,75.40
2018-04-19T05:24:11.352Z,75.00
2018-04-19T05:26:39.724Z,75.40
2018-04-19T05:29:08.072Z,75.00
2018-04-19T05:31:35.678Z,75.00
2018-04-19T05:34:04.049Z,74.90
2018-04-19T05:36:32.374Z,75.00
2018-04-19T05:39:00.113Z,74.90
2018-04-19T05:41:27.693Z,74.60
2018-04-19T05:43:55.398Z,73.70
2018-04-19T05:46:22.969Z,74.40
2018-04-19T05:48:51.327Z,71.50
2018-04-19T05:51:19.689Z,72.30
2018-04-19T05:53:47.257Z,72.20
2018-04-19T05:56:14.847Z,73.10
2018-04-19T05:58:42.416Z,72.20
2018-04-19T06:01:10.001Z,71.50
2018-04-19T06:03:37.570Z,71.70
2018-04-19T06:06:05.271Z,71.30
2018-04-19T06:08:33.674Z,71.00
2018-04-19T06:11:01.998Z,70.40
2018-04-19T06:13:29.642Z,70.40
2018-04-19T06:15:57.250Z,69.70
2018-04-19T06:18:25.589Z,69.40
2018-04-19T06:20:53.169Z,69.40
2018-04-19T06:23:20.776Z,69.70
2018-04-19T06:25:48.354Z,68.80
2018-04-19T06:28:15.961Z,67.80
2018-04-19T06:30:44.293Z,66.10
2018-04-19T06:33:11.982Z,66.00
2018-04-19T06:35:39.561Z,65.80
2018-04-19T06:38:08.015Z,64.40
2018-04-19T06:40:35.597Z,64.40
2018-04-19T06:43:04.028Z,62.80
2018-04-19T06:45:31.640Z,62.70
2018-04-19T06:47:59.277Z,61.10
2018-04-19T06:50:26.860Z,61.00
2018-04-19T06:52:54.466Z,61.00
2018-04-19T06:55:22.213Z,60.80
2018-04-19T06:57:49.817Z,58.20
2018-04-19T07:00:17.415Z,58.70
2018-04-19T07:02:45.000Z,57.80
2018-04-19T07:05:13.052Z,55.30
2018-04-19T07:07:40.825Z,53.10
2018-04-19T07:10:08.397Z,52.20
2018-04-19T07:12:36.000Z,51.90
2018-04-19T07:15:04.341Z,51.10
2018-04-19T07:17:32.076Z,51.10
2018-04-19T07:19:59.670Z,50.50
2018-04-19T07:22:27.437Z,47.30
2018-04-19T07:24:55.030Z,47.70
2018-04-19T07:27:23.498Z,45.90
2018-04-19T07:29:51.862Z,45.20
2018-04-19T07:32:20.261Z,44.40
2018-04-19T07:34:47.806Z,44.40
2018-04-19T07:37:16.157Z,44.00
2018-04-19T07:39:43.744Z,43.20
2018-04-19T07:42:12.084Z,40.50
2018-04-19T07:44:39.702Z,40.40
2018-04-19T07:47:07.270Z,38.90
2018-04-19T07:49:34.845Z,40.60
2018-04-19T07:52:02.426Z,39.60
2018-04-19T07:54:30.856Z,38.70
2018-04-19T07:56:58.566Z,37.20
2018-04-19T07:59:26.144Z,38.80
2018-04-19T08:01:53.905Z,38.10
2018-04-19T08:04:21.473Z,36.90
2018-04-19T08:06:49.053Z,38.20
2018-04-19T08:09:16.616Z,38.10
2018-04-19T08:11:44.287Z,39.00
2018-04-19T08:14:11.870Z,39.00
2018-04-19T08:16:39.561Z,37.40
2018-04-19T08:19:07.265Z,36.30
2018-04-19T08:21:34.933Z,35.40
2018-04-19T08:24:02.557Z,36.40
2018-04-19T08:26:30.965Z,35.10
2018-04-19T08:28:58.689Z,35.00
2018-04-19T08:31:26.256Z,36.30
2018-04-19T08:33:54.611Z,37.70
2018-04-19T08:36:22.173Z,37.70
2018-04-19T08:38:49.893Z,36.70
2018-04-19T08:41:17.453Z,35.70
2018-04-19T08:43:45.137Z,36.10
2018-04-19T08:46:12.782Z,36.70
2018-04-19T08:48:40.362Z,35.00
2018-04-19T08:51:07.921Z,34.30
2018-04-19T08:53:35.669Z,34.10
2018-04-19T08:56:03.365Z,34.60
2018-04-19T08:58:30.948Z,35.60
2018-04-19T09:00:59.301Z,34.50
2018-04-19T09:03:27.009Z,34.40
2018-04-19T09:05:54.622Z,34.40
2018-04-19T09:08:22.186Z,33.30
2018-04-19T09:10:50.558Z,36.20
2018-04-19T09:13:18.217Z,35.60
2018-04-19T09:15:45.945Z,33.60
2018-04-19T09:18:13.534Z,32.50
2018-04-19T09:20:41.160Z,32.70
2018-04-19T09:23:08.789Z,32.20
2018-04-19T09:25:36.381Z,30.60
2018-04-19T09:28:03.992Z,31.10
2018-04-19T09:30:32.367Z,31.00
2018-04-19T09:32:59.945Z,30.90
2018-04-19T09:35:27.635Z,31.60
2018-04-19T09:37:55.461Z,29.60
2018-04-19T09:40:23.826Z,32.10
2018-04-19T09:42:52.158Z,30.20
2018-04-19T09:45:19.900Z,30.20
2018-04-19T09:47:47.479Z,29.90
2018-04-19T09:50:15.214Z,30.40
2018-04-19T09:52:42.986Z,30.70
2018-04-19T09:55:10.571Z,30.20
2018-04-19T09:57:38.364Z,29.30
2018-04-19T10:00:05.923Z,28.20
2018-04-19T10:02:35.024Z,30.80
2018-04-19T10:05:03.552Z,29.50
2018-04-19T10:07:31.159Z,29.50
2018-04-19T10:09:59.525Z,30.80
2018-04-19T10:12:27.281Z,30.60
2018-04-19T10:14:54.884Z,28.30
2018-04-19T10:17:22.482Z,29.40
2018-04-19T10:19:50.045Z,28.50
2018-04-19T10:22:17.692Z,29.60
2018-04-19T10:24:45.260Z,29.80
2018-04-19T10:27:12.822Z,28.80
2018-04-19T10:29:40.433Z,29.00
2018-04-19T10:32:08.201Z,29.30
2018-04-19T10:34:35.785Z,28.90
2018-04-19T10:37:03.342Z,28.60
2018-04-19T10:39:31.003Z,27.60
2018-04-19T10:41:58.601Z,27.10
2018-04-19T10:44:26.233Z,28.00
2018-04-19T10:46:53.934Z,27.30
2018-04-19T10:49:22.282Z,27.30
2018-04-19T10:51:49.866Z,27.40
2018-04-19T10:54:18.227Z,29.00
2018-04-19T10:56:45.912Z,29.00
2018-04-19T10:59:14.461Z,27.60
2018-04-19T11:01:42.084Z,27.50
2018-04-19T11:04:09.662Z,28.00
2018-04-19T11:06:37.290Z,28.20
2018-04-19T11:09:05.494Z,28.30
2018-04-19T11:11:33.168Z,27.80
2018-04-19T11:14:00.769Z,28.20
2018-04-19T11:16:29.169Z,28.10
2018-04-19T11:18:56.907Z,28.10
2018-04-19T11:21:25.246Z,29.50
2018-04-19T11:23:52.841Z,29.50
2018-04-19T11:26:21.176Z,29.10
2018-04-19T11:28:48.790Z,29.10
2018-04-19T11:31:16.417Z,28.60
2018-04-19T11:33:44.905Z,29.00
2018-04-19T11:36:13.244Z,28.90
2018-04-19T11:38:40.901Z,28.80
2018-04-19T11:41:08.529Z,28.30
2018-04-19T11:43:36.837Z,29.30
2018-04-19T11:46:04.430Z,29.30
2018-04-19T11:48:32.775Z,28.70
2018-04-19T11:51:00.362Z,28.60
2018-04-19T11:53:28.016Z,28.70
2018-04-19T11:55:55.577Z,30.70
2018-04-19T11:58:24.689Z,28.60
2018-04-19T12:00:53.014Z,29.20
2018-04-19T12:03:20.713Z,29.20
2018-04-19T12:05:48.274Z,29.00
2018-04-19T12:08:16.685Z,29.70
2018-04-19T12:10:44.260Z,29.20
2018-04-19T12:13:11.861Z,30.00
2018-04-19T12:15:39.533Z,31.50
2018-04-19T12:18:07.957Z,30.20
2018-04-19T12:20:35.509Z,30.10
2018-04-19T12:23:03.246Z,30.70
2018-04-19T12:25:31.569Z,30.30
2018-04-19T12:27:59.133Z,30.30
2018-04-19T12:30:26.716Z,30.20
2018-04-19T12:32:54.317Z,30.50
2018-04-19T12:35:21.944Z,30.40
2018-04-19T12:37:49.576Z,30.00
2018-04-19T12:40:17.202Z,31.00
2018-04-19T12:42:44.827Z,30.80
2018-04-19T12:45:13.193Z,31.50
2018-04-19T12:47:40.764Z,31.50
2018-04-19T12:50:09.155Z,30.90
2018-04-19T12:52:37.630Z,30.40
2018-04-19T12:55:05.981Z,30.00
2018-04-19T12:57:33.702Z,29.90
2018-04-19T13:00:01.307Z,31.20
2018-04-19T13:02:28.959Z,33.00
2018-04-19T13:04:56.517Z,30.40
2018-04-19T13:07:24.253Z,32.40
2018-04-19T13:09:51.833Z,31.50
2018-04-19T13:12:19.441Z,30.70
2018-04-19T13:14:47.070Z,31.70
2018-04-19T13:17:14.646Z,30.00
2018-04-19T13:19:42.986Z,31.30
2018-04-19T13:22:10.581Z,31.20
2018-04-19T13:24:38.994Z,31.20
2018-04-19T13:27:06.705Z,31.10
2018-04-19T13:29:34.435Z,31.50
2018-04-19T13:32:02.028Z,32.30
2018-04-19T13:34:30.422Z,31.20
2018-04-19T13:36:58.748Z,31.40
2018-04-19T13:39:26.449Z,30.90
2018-04-19T13:41:54.785Z,31.30
2018-04-19T13:44:22.537Z,31.20
2018-04-19T13:46:50.090Z,30.50
2018-04-19T13:49:17.686Z,30.90
2018-04-19T13:51:45.299Z,30.40
2018-04-19T13:54:12.907Z,30.60
2018-04-19T13:56:40.459Z,31.80
2018-04-19T13:59:09.633Z,32.60
2018-04-19T14:01:37.328Z,32.60
2018-04-19T14:04:04.997Z,30.50
2018-04-19T14:06:33.361Z,31.10
2018-04-19T14:09:00.972Z,31.00
2018-04-19T14:11:28.901Z,30.20
2018-04-19T14:13:57.273Z,30.30
2018-04-19T14:16:25.804Z,31.70
2018-04-19T14:18:53.361Z,31.40
2018-04-19T14:21:20.978Z,30.60
2018-04-19T14:23:49.314Z,30.30
2018-04-19T14:26:16.901Z,30.20
2018-04-19T14:28:44.461Z,30.60
2018-04-19T14:31:12.883Z,30.60
2018-04-19T14:33:41.193Z,33.10
2018-04-19T14:36:08.966Z,32.80
2018-04-19T14:38:37.337Z,29.90
2018-04-19T14:41:04.925Z,29.90
2018-04-19T14:43:33.274Z,30.80
2018-04-19T14:46:00.863Z,30.80
2018-04-19T14:48:29.197Z,31.20
2018-04-19T14:50:56.756Z,31.00
2018-04-19T14:53:24.498Z,29.90
2018-04-19T14:55:52.093Z,30.10
2018-04-19T14:58:19.838Z,30.20
2018-04-19T15:00:47.442Z,30.40
2018-04-19T15:03:15.044Z,30.20
2018-04-19T15:05:42.626Z,30.30
2018-04-19T15:08:10.236Z,31.50
2018-04-19T15:10:37.885Z,30.20
2018-04-19T15:13:06.252Z,30.90
2018-04-19T15:15:34.589Z,30.20
2018-04-19T15:18:02.281Z,30.20
2018-04-19T15:20:30.629Z,30.30
2018-04-19T15:22:58.380Z,30.30
2018-04-19T15:25:25.982Z,30.30
2018-04-19T15:27:53.543Z,30.10
2018-04-19T15:30:22.018Z,30.90
2018-04-19T15:32:50.382Z,30.10
2018-04-19T15:35:18.015Z,29.90
2018-04-19T15:37:45.585Z,30.00
2018-04-19T15:40:13.281Z,29.40
2018-04-19T15:42:41.635Z,29.70
2018-04-19T15:45:09.301Z,29.70
2018-04-19T15:47:36.879Z,29.00
2018-04-19T15:50:05.272Z,29.20
2018-04-19T15:52:32.825Z,29.20
2018-04-19T15:55:01.338Z,28.80
2018-04-19T15:57:29.625Z,29.20
2018-04-19T15:59:57.206Z,29.20
2018-04-19T16:02:24.863Z,28.80
2018-04-19T16:04:52.575Z,29.20
2018-04-19T16:07:20.238Z,28.00
2018-04-19T16:09:47.800Z,28.40
2018-04-19T16:12:15.496Z,28.80
2018-04-19T16:14:43.149Z,28.50
2018-04-19T16:17:10.774Z,28.60
2018-04-19T16:19:38.325Z,28.00
2018-04-19T16:22:05.921Z,28.10
2018-04-19T16:24:33.474Z,28.00
2018-04-19T16:27:01.094Z,27.80
2018-04-19T16:29:28.669Z,27.50
2018-04-19T16:31:56.231Z,28.20
2018-04-19T16:34:23.912Z,28.50
2018-04-19T16:36:51.504Z,28.50
2018-04-19T16:39:19.065Z,28.80
2018-04-19T16:41:46.654Z,28.70
2018-04-19T16:44:14.236Z,28.80
2018-04-19T16:46:41.817Z,28.90
2018-04-19T16:49:09.421Z,27.90
2018-04-19T16:51:37.891Z,28.40
2018-04-19T16:54:06.244Z,28.40
2018-04-19T16:56:33.859Z,28.40
2018-04-19T16:59:01.429Z,28.80
2018-04-19T17:01:29.106Z,28.70
2018-04-19T17:03:56.802Z,28.80
2018-04-19T17:06:25.153Z,28.70
2018-04-19T17:08:52.722Z,28.70
2018-04-19T17:11:20.313Z,28.50
2018-04-19T17:13:48.681Z,28.50
2018-04-19T17:16:17.072Z,28.50
2018-04-19T17:18:44.855Z,28.40
2018-04-19T17:21:12.464Z,28.60
2018-04-19T17:23:40.112Z,28.80
2018-04-19T17:26:07.720Z,28.60
2018-04-19T17:28:35.303Z,28.80
2018-04-19T17:31:02.948Z,29.20
2018-04-19T17:33:30.513Z,29.70
2018-04-19T17:35:58.179Z,30.00
2018-04-19T17:38:25.762Z,30.70
2018-04-19T17:40:53.356Z,30.50
2018-04-19T17:43:21.695Z,31.00
2018-04-19T17:45:49.308Z,31.00
2018-04-19T17:48:16.873Z,31.60
2018-04-19T17:50:44.473Z,31.70
2018-04-19T17:53:12.101Z,31.80
2018-04-19T17:55:39.766Z,32.10
2018-04-19T17:58:07.349Z,32.10
2018-04-19T18:00:35.050Z,32.50
2018-04-19T18:03:03.422Z,32.90
2018-04-19T18:05:31.749Z,33.50
2018-04-19T18:07:59.497Z,33.30
2018-04-19T18:10:27.074Z,33.10
2018-04-19T18:12:54.718Z,33.60
2018-04-19T18:15:22.313Z,33.90
2018-04-19T18:17:49.909Z,34.10
2018-04-19T18:20:18.303Z,34.50
2018-04-19T18:22:45.928Z,34.50
2018-04-19T18:25:14.301Z,35.10
2018-04-19T18:27:41.903Z,35.00
2018-04-19T18:30:09.518Z,35.30
2018-04-19T18:32:37.081Z,35.60
2018-04-19T18:35:04.673Z,35.80
2018-04-19T18:37:32.411Z,35.80
2018-04-19T18:40:00.774Z,36.30
2018-04-19T18:42:28.333Z,36.30
2018-04-19T18:44:57.525Z,36.70
2018-04-19T18:47:25.109Z,36.60
2018-04-19T18:49:53.638Z,36.90
2018-04-19T18:52:21.389Z,36.80
2018-04-19T18:54:49.105Z,37.00
2018-04-19T18:57:17.505Z,37.20
2018-04-19T18:59:45.182Z,37.20
2018-04-19T19:02:12.785Z,37.30
2018-04-19T19:04:40.431Z,37.30
2018-04-19T19:07:08.056Z,37.30
2018-04-19T19:09:35.708Z,37.40
2018-04-19T19:12:03.311Z,37.50
2018-04-19T19:14:33.715Z,37.90
2018-04-19T19:17:01.349Z,37.70
2018-04-19T19:22:31.035Z,36.90
2018-04-19T19:24:58.625Z,37.50
2018-04-19T19:27:26.994Z,37.70
2018-04-19T19:29:55.378Z,37.80
2018-04-19T19:32:23.726Z,38.00
2018-04-19T19:34:51.295Z,38.00
2018-04-19T19:37:19.646Z,37.90
2018-04-19T19:39:47.266Z,37.80
2018-04-19T19:42:14.885Z,37.90
2018-04-19T19:44:42.451Z,37.80
2018-04-19T19:47:10.042Z,37.70
2018-04-19T19:49:37.665Z,38.20
2018-04-19T19:52:05.253Z,37.90
2018-04-19T19:54:33.098Z,38.00
2018-04-19T19:57:01.461Z,38.30
2018-04-19T19:59:29.082Z,38.30
2018-04-19T20:01:56.657Z,38.30
2018-04-19T20:04:24.379Z,38.50
2018-04-19T20:06:51.995Z,38.40
2018-04-19T20:09:19.617Z,38.70
2018-04-19T20:11:47.225Z,39.10
2018-04-19T20:14:14.807Z,41.10
2018-04-19T20:16:43.173Z,43.10
2018-04-19T20:19:11.565Z,43.80
2018-04-19T20:21:39.185Z,43.70
2018-04-19T20:24:06.855Z,44.00
2018-04-19T20:26:34.582Z,44.60
2018-04-19T20:29:02.168Z,44.80
2018-04-19T20:31:30.549Z,45.70
2018-04-19T20:33:58.322Z,46.00
2018-04-19T20:36:26.669Z,46.20
2018-04-19T20:38:54.403Z,46.20
2018-04-19T20:41:22.040Z,44.60
2018-04-19T20:43:50.362Z,42.60
2018-04-19T20:46:17.941Z,42.50
2018-04-19T20:48:45.724Z,42.70
2018-04-19T20:51:14.182Z,42.50
2018-04-19T20:53:41.870Z,42.50
2018-04-19T20:56:10.298Z,45.00
2018-04-19T20:58:37.895Z,45.00
2018-04-19T21:01:05.463Z,42.70
2018-04-19T21:03:33.834Z,43.30
2018-04-19T21:06:02.167Z,45.00
2018-04-19T21:08:29.790Z,45.00
2018-04-19T21:10:57.357Z,44.30
2018-04-19T21:13:25.033Z,45.90
2018-04-19T21:15:52.616Z,46.70
2018-04-19T21:18:20.194Z,47.90
2018-04-19T21:20:47.931Z,48.50
2018-04-19T21:23:15.506Z,49.40
2018-04-19T21:25:43.092Z,50.40
2018-04-19T21:28:11.622Z,51.20
2018-04-19T21:30:39.239Z,51.20
2018-04-19T21:33:07.591Z,49.70
2018-04-19T21:35:35.212Z,49.70
2018-04-19T21:38:02.776Z,48.80
2018-04-19T21:40:30.377Z,49.10
2018-04-19T21:42:57.962Z,49.10
2018-04-19T21:45:25.525Z,49.20
2018-04-19T21:47:53.157Z,49.00
2018-04-19T21:50:21.493Z,49.70
2018-04-19T21:52:49.294Z,49.60
2018-04-19T21:55:16.881Z,49.90
2018-04-19T21:57:44.461Z,49.90
2018-04-19T22:00:12.226Z,50.70
2018-04-19T22:02:39.830Z,51.70
2018-04-19T22:05:07.418Z,52.50
2018-04-19T22:07:35.123Z,52.80
2018-04-19T22:10:02.718Z,52.30
2018-04-19T22:12:31.085Z,51.30
2018-04-19T22:14:58.656Z,51.30
2018-04-19T22:17:27.000Z,52.40
2018-04-19T22:19:54.560Z,52.30
2018-04-19T22:22:22.129Z,53.30
2018-04-19T22:24:49.728Z,53.70
2018-04-19T22:27:17.333Z,53.90
2018-04-19T22:29:45.089Z,54.50
2018-04-19T22:32:12.642Z,55.50
2018-04-19T22:34:40.442Z,55.90
2018-04-19T22:37:08.174Z,55.00
2018-04-19T22:39:35.758Z,56.40
2018-04-19T22:42:03.352Z,54.20
2018-04-19T22:44:30.913Z,53.60
2018-04-19T22:46:58.668Z,54.60
2018-04-19T22:49:26.212Z,54.70
2018-04-19T22:51:54.533Z,54.10
2018-04-19T22:54:22.342Z,54.00
2018-04-19T22:56:49.921Z,55.60
2018-04-19T22:59:18.241Z,54.90
2018-04-19T23:01:45.945Z,54.90
2018-04-19T23:04:14.312Z,54.30
2018-04-19T23:06:41.929Z,54.20
2018-04-19T23:09:09.509Z,55.70
2018-04-19T23:11:37.108Z,56.30
2018-04-19T23:14:05.457Z,56.70
2018-04-19T23:16:33.950Z,57.60
2018-04-19T23:19:02.312Z,57.50
2018-04-19T23:21:29.971Z,57.50
2018-04-19T23:23:57.566Z,56.50
2018-04-19T23:26:25.894Z,56.70
2018-04-19T23:28:53.578Z,56.70
2018-04-19T23:31:21.134Z,56.80
2018-04-19T23:33:48.777Z,59.40
2018-04-19T23:36:16.461Z,57.70
2018-04-19T23:38:44.101Z,57.30
2018-04-19T23:41:11.681Z,58.00
2018-04-19T23:43:40.124Z,58.30
2018-04-19T23:46:07.722Z,58.20
2018-04-19T23:48:36.045Z,60.10
2018-04-19T23:51:03.805Z,59.50
2018-04-19T23:53:31.373Z,58.10
2018-04-19T23:55:58.961Z,57.60
2018-04-19T23:58:26.519Z,59.00
